createdAt,value
2023-04-12T00:01:15.485Z,100392.28
2023-04-12T00:03:44.292Z,100388.72
2023-04-12T00:06:13.991Z,100379.97
2023-04-12T00:08:42.856Z,100380.75
2023-04-12T00:11:11.608Z,100380.69
2023-04-12T00:13:40.418Z,100371.06
2023-04-12T00:16:15.807Z,100349.97
2023-04-12T00:18:45.742Z,100376.22
2023-04-12T00:21:17.723Z,100377.09
2023-04-12T00:23:46.983Z,100364.97
2023-04-12T00:26:15.934Z,100362.34
2023-04-12T00:28:46.118Z,100361.50
2023-04-12T00:31:15.990Z,100361.50
2023-04-12T00:33:44.766Z,100362.34
2023-04-12T00:36:13.647Z,100366.72
2023-04-12T00:38:45.874Z,100363.25
2023-04-12T00:41:14.720Z,100371.91
2023-04-12T00:43:43.682Z,100369.38
2023-04-12T00:46:12.924Z,100371.13
2023-04-12T00:48:42.780Z,100375.50
2023-04-12T00:51:11.663Z,100371.13
2023-04-12T00:53:41.913Z,100366.78
2023-04-12T00:56:12.009Z,100366.78
2023-04-12T00:58:41.581Z,100369.38
2023-04-12T01:01:10.626Z,100368.47
2023-04-12T01:03:44.838Z,100371.06
2023-04-12T01:06:29.875Z,100371.84
2023-04-12T01:09:12.326Z,100361.22
2023-04-12T01:11:52.377Z,100375.16
2023-04-12T01:14:46.211Z,100371.63
2023-04-12T01:17:24.943Z,100319.09
2023-04-12T01:20:13.274Z,100360.22
2023-04-12T01:23:41.935Z,100371.44
2023-04-12T01:26:23.997Z,100366.19
2023-04-12T01:28:56.484Z,100357.47
2023-04-12T01:31:27.886Z,100351.38
2023-04-12T01:33:58.432Z,100346.97
2023-04-12T01:36:29.326Z,100340.84
2023-04-12T01:38:58.655Z,100335.63
2023-04-12T01:41:27.191Z,100313.78
2023-04-12T01:43:57.506Z,100326.06
2023-04-12T01:46:26.804Z,100320.84
2023-04-12T01:48:56.041Z,100316.50
2023-04-12T01:51:38.440Z,100316.50
2023-04-12T01:54:12.886Z,100315.56
2023-04-12T01:56:47.660Z,100310.31
2023-04-12T01:59:20.029Z,100312.88
2023-04-12T02:01:48.938Z,100305.94
2023-04-12T02:04:19.262Z,100299.00
2023-04-12T02:06:49.281Z,100294.66
2023-04-12T02:09:18.014Z,100289.38
2023-04-12T02:11:49.713Z,100291.13
2023-04-12T02:14:19.715Z,100260.50
2023-04-12T02:16:50.728Z,100288.53
2023-04-12T02:19:20.157Z,100297.19
2023-04-12T02:21:52.308Z,100291.13
2023-04-12T02:24:21.437Z,100226.31
2023-04-12T02:26:50.863Z,100282.31
2023-04-12T02:29:21.825Z,100280.56
2023-04-12T02:31:51.257Z,100277.94
2023-04-12T02:34:21.496Z,100279.66
2023-04-12T02:36:56.764Z,100281.38
2023-04-12T02:39:26.001Z,100278.75
2023-04-12T02:41:54.800Z,100268.34
2023-04-12T02:44:24.622Z,100263.97
2023-04-12T02:47:14.451Z,100263.03
2023-04-12T02:49:47.066Z,100265.59
2023-04-12T02:52:18.395Z,100256.94
2023-04-12T02:55:06.793Z,100256.91
2023-04-12T02:57:38.438Z,100248.25
2023-04-12T03:00:12.770Z,100250.84
2023-04-12T03:02:49.922Z,100248.25
2023-04-12T03:05:24.500Z,100240.41
2023-04-12T03:07:54.064Z,100243.91
2023-04-12T03:10:28.557Z,100237.81
2023-04-12T03:13:05.039Z,100232.56
2023-04-12T03:15:50.697Z,100126.84
2023-04-12T03:18:21.790Z,100218.63
2023-04-12T03:20:53.554Z,100216.84
2023-04-12T03:23:22.287Z,100217.72
2023-04-12T03:26:00.711Z,100215.13
2023-04-12T03:28:36.448Z,100210.75
2023-04-12T03:31:10.625Z,100209.03
2023-04-12T03:33:47.398Z,100209.03
2023-04-12T03:36:27.180Z,100208.09
2023-04-12T03:39:10.672Z,100204.59
2023-04-12T03:41:40.492Z,100205.41
2023-04-12T03:44:09.764Z,100206.25
2023-04-12T03:46:39.835Z,100209.72
2023-04-12T03:49:12.271Z,100208.78
2023-04-12T03:51:42.904Z,100203.56
2023-04-12T03:54:12.433Z,100208.72
2023-04-12T03:56:52.057Z,100195.69
2023-04-12T03:59:26.843Z,100201.78
2023-04-12T04:01:58.465Z,100133.03
2023-04-12T04:04:29.641Z,100190.78
2023-04-12T04:07:02.588Z,100187.34
2023-04-12T04:09:36.240Z,100182.91
2023-04-12T04:12:05.713Z,100180.25
2023-04-12T04:14:36.963Z,100174.09
2023-04-12T04:17:09.400Z,100173.16
2023-04-12T04:19:38.127Z,100172.28
2023-04-12T04:22:08.188Z,100178.31
2023-04-12T04:24:39.155Z,100178.34
2023-04-12T04:27:09.381Z,100168.81
2023-04-12T04:29:44.416Z,100163.66
2023-04-12T04:32:16.889Z,100165.44
2023-04-12T04:34:47.759Z,100166.31
2023-04-12T04:37:19.855Z,100164.56
2023-04-12T04:39:50.886Z,100099.94
2023-04-12T04:42:19.945Z,100166.38
2023-04-12T04:45:04.619Z,100166.44
2023-04-12T04:47:40.771Z,100174.31
2023-04-12T04:50:10.420Z,100174.38
2023-04-12T04:52:41.028Z,100176.16
2023-04-12T04:55:14.232Z,100172.75
2023-04-12T04:57:46.504Z,100127.34
2023-04-12T05:00:16.599Z,100151.91
2023-04-12T05:02:50.616Z,100176.47
2023-04-12T05:05:26.148Z,100176.56
2023-04-12T05:08:02.002Z,100180.13
2023-04-12T05:10:32.606Z,100182.81
2023-04-12T05:13:04.254Z,100179.47
2023-04-12T05:15:32.884Z,100146.41
2023-04-12T05:18:03.611Z,100178.72
2023-04-12T05:20:32.691Z,100177.00
2023-04-12T05:23:01.452Z,100180.53
2023-04-12T05:25:29.958Z,100187.53
2023-04-12T05:28:11.528Z,100191.09
2023-04-12T05:30:40.989Z,100184.19
2023-04-12T05:33:12.828Z,100177.25
2023-04-12T05:35:46.851Z,100178.19
2023-04-12T05:38:15.358Z,100172.16
2023-04-12T05:40:46.474Z,100170.44
2023-04-12T05:43:17.828Z,100171.38
2023-04-12T05:45:46.369Z,100162.69
2023-04-12T05:48:16.357Z,100159.25
2023-04-12T05:50:52.622Z,100149.69
2023-04-12T05:53:23.683Z,100135.75
2023-04-12T05:55:54.343Z,100141.03
2023-04-12T05:58:24.196Z,100141.88
2023-04-12T06:00:55.852Z,100134.91
2023-04-12T06:03:26.058Z,100133.16
2023-04-12T06:05:59.244Z,100128.75
2023-04-12T06:08:29.402Z,100127.00
2023-04-12T06:10:58.016Z,100125.22
2023-04-12T06:13:28.768Z,100116.44
2023-04-12T06:15:57.884Z,100108.56
2023-04-12T06:18:27.958Z,100112.88
2023-04-12T06:20:56.789Z,100112.81
2023-04-12T06:23:25.826Z,100104.06
2023-04-12T06:25:54.904Z,100109.28
2023-04-12T06:28:23.487Z,100109.19
2023-04-12T06:30:54.855Z,100098.63
2023-04-12T06:33:24.292Z,100095.09
2023-04-12T06:35:55.318Z,100086.28
2023-04-12T06:38:24.570Z,100084.47
2023-04-12T06:40:53.397Z,100087.00
2023-04-12T06:43:22.823Z,100074.69
2023-04-12T06:45:51.317Z,100073.75
2023-04-12T06:48:20.196Z,100065.78
2023-04-12T06:50:48.883Z,100067.50
2023-04-12T06:53:18.634Z,100065.66
2023-04-12T06:55:47.363Z,100057.72
2023-04-12T06:58:16.188Z,100055.88
2023-04-12T07:00:47.764Z,100050.50
2023-04-12T07:03:16.237Z,100045.94
2023-04-12T07:05:45.141Z,100047.56
2023-04-12T07:08:13.659Z,100042.13
2023-04-12T07:10:43.362Z,100047.25
2023-04-12T07:13:12.073Z,100041.88
2023-04-12T07:15:40.940Z,100039.09
2023-04-12T07:18:10.113Z,100041.56
2023-04-12T07:20:38.550Z,100037.84
2023-04-12T07:23:07.002Z,100041.25
2023-04-12T07:25:38.005Z,100034.97
2023-04-12T07:28:09.029Z,100040.06
2023-04-12T07:30:39.928Z,100033.75
2023-04-12T07:33:19.168Z,100037.09
2023-04-12T07:35:48.600Z,100038.66
2023-04-12T07:38:17.142Z,100029.78
2023-04-12T07:40:47.694Z,100020.78
2023-04-12T07:43:19.826Z,100019.69
2023-04-12T07:45:49.398Z,100011.69
2023-04-12T07:48:17.956Z,100017.69
2023-04-12T07:50:46.891Z,100010.41
2023-04-12T07:53:23.264Z,100012.72
2023-04-12T07:55:52.253Z,100014.22
2023-04-12T07:58:24.120Z,100012.25
2023-04-12T08:00:53.100Z,100005.81
2023-04-12T08:03:21.967Z,100013.31
2023-04-12T08:05:53.844Z,100016.69
2023-04-12T08:08:23.229Z,100012.03
2023-04-12T08:10:52.562Z,100006.66
2023-04-12T08:13:22.907Z,100003.78
2023-04-12T08:15:52.008Z,100003.66
2023-04-12T08:18:21.082Z,100000.69
2023-04-12T08:20:49.821Z,99996.84
2023-04-12T08:23:18.892Z,99999.38
2023-04-12T08:25:47.623Z,100000.97
2023-04-12T08:28:16.737Z,99990.16
2023-04-12T08:30:46.866Z,99991.63
2023-04-12T08:33:15.635Z,99986.25
2023-04-12T08:35:44.403Z,99986.81
2023-04-12T08:38:12.860Z,99955.28
2023-04-12T08:40:44.388Z,99973.13
2023-04-12T08:43:14.015Z,99976.44
2023-04-12T08:45:43.073Z,99975.53
2023-04-12T08:48:13.488Z,99968.91
2023-04-12T08:50:45.518Z,99961.63
2023-04-12T08:53:14.280Z,99958.09
2023-04-12T08:55:45.667Z,99955.19
2023-04-12T08:58:16.592Z,99954.88
2023-04-12T09:00:46.400Z,99951.94
2023-04-12T09:03:16.377Z,99945.81
2023-04-12T09:05:45.041Z,99942.13
2023-04-12T09:08:13.728Z,99932.22
2023-04-12T09:10:42.822Z,99921.94
2023-04-12T09:13:11.672Z,99935.47
2023-04-12T09:15:51.259Z,99916.03
2023-04-12T09:18:21.101Z,99922.59
2023-04-12T09:21:06.854Z,99920.34
2023-04-12T09:23:36.347Z,99922.91
2023-04-12T09:26:05.463Z,99913.78
2023-04-12T09:28:34.124Z,99912.88
2023-04-12T09:31:04.132Z,99842.84
2023-04-12T09:33:39.376Z,99900.44
2023-04-12T09:36:13.671Z,99900.91
2023-04-12T09:38:43.969Z,99903.13
2023-04-12T09:41:26.508Z,99899.84
2023-04-12T09:43:56.102Z,99894.53
2023-04-12T09:46:25.139Z,99891.06
2023-04-12T09:48:58.662Z,99863.47
2023-04-12T09:51:29.600Z,99876.38
2023-04-12T09:54:01.457Z,99863.13
2023-04-12T09:56:33.171Z,99876.09
2023-04-12T09:59:04.668Z,99864.38
2023-04-12T10:01:39.742Z,99861.53
2023-04-12T10:04:11.505Z,99859.81
2023-04-12T10:06:41.449Z,99817.59
2023-04-12T10:09:11.232Z,99858.16
2023-04-12T10:11:41.886Z,99850.91
2023-04-12T10:14:15.018Z,99822.63
2023-04-12T10:16:46.513Z,99837.28
2023-04-12T10:19:18.241Z,99830.81
2023-04-12T10:21:46.625Z,99748.00
2023-04-12T10:24:16.648Z,99778.91
2023-04-12T10:26:45.687Z,99821.53
2023-04-12T10:29:30.242Z,99779.38
2023-04-12T10:32:19.396Z,99804.28
2023-04-12T10:34:56.168Z,99794.44
2023-04-12T10:37:52.299Z,99794.06
2023-04-12T10:40:21.149Z,99792.06
2023-04-12T10:42:50.020Z,99783.41
2023-04-12T10:45:40.442Z,99783.13
2023-04-12T10:48:09.102Z,99782.75
2023-04-12T10:50:39.071Z,99774.75
2023-04-12T10:53:26.254Z,99770.34
2023-04-12T10:55:55.227Z,99762.66
2023-04-12T10:59:00.813Z,99744.63
2023-04-12T11:01:37.787Z,99722.59
2023-04-12T11:04:17.019Z,99748.91
2023-04-12T11:07:02.929Z,99746.28
2023-04-12T11:09:51.958Z,99732.50
2023-04-12T11:12:30.263Z,99722.84
2023-04-12T11:15:02.237Z,99720.56
2023-04-12T11:18:00.955Z,99729.69
2023-04-12T11:20:29.868Z,99725.63
2023-04-12T11:23:03.455Z,99709.94
2023-04-12T11:25:33.138Z,99693.56
2023-04-12T11:28:04.072Z,99685.22
2023-04-12T11:30:37.240Z,99697.53
2023-04-12T11:33:06.250Z,99697.84
2023-04-12T11:35:35.534Z,99695.69
2023-04-12T11:38:05.794Z,99694.97
2023-04-12T11:40:34.541Z,99693.19
2023-04-12T11:43:03.114Z,99677.16
2023-04-12T11:45:32.024Z,99684.34
2023-04-12T11:48:00.658Z,99662.28
2023-04-12T11:50:32.691Z,99666.41
2023-04-12T11:53:19.495Z,99673.91
2023-04-12T11:55:50.659Z,99670.25
2023-04-12T11:58:23.638Z,99665.22
2023-04-12T12:00:53.270Z,99660.78
2023-04-12T12:03:22.345Z,99656.81
2023-04-12T12:05:52.264Z,99646.72
2023-04-12T12:08:24.396Z,99647.59
2023-04-12T12:11:07.015Z,99640.63
2023-04-12T12:13:47.794Z,99634.94
2023-04-12T12:16:16.426Z,99627.28
2023-04-12T12:18:47.099Z,99617.78
2023-04-12T12:21:16.891Z,99618.66
2023-04-12T12:23:48.912Z,99585.59
2023-04-12T12:26:22.853Z,99571.66
2023-04-12T12:28:53.233Z,99619.84
2023-04-12T12:31:25.545Z,99604.81
2023-04-12T12:33:57.837Z,99562.75
2023-04-12T12:36:33.382Z,99610.22
2023-04-12T12:39:10.721Z,99608.03
2023-04-12T12:41:41.162Z,99567.81
2023-04-12T12:44:11.285Z,99582.31
2023-04-12T12:46:53.492Z,99577.66
2023-04-12T12:49:24.270Z,99565.22
2023-04-12T12:51:53.071Z,99573.47
2023-04-12T12:54:39.272Z,99567.13
2023-04-12T12:57:08.540Z,99566.97
2023-04-12T12:59:37.353Z,99547.25
2023-04-12T13:02:07.450Z,99553.66
2023-04-12T13:04:36.446Z,99538.81
2023-04-12T13:07:05.239Z,99553.19
2023-04-12T13:09:35.080Z,99560.09
2023-04-12T13:12:04.197Z,99558.13
2023-04-12T13:14:32.964Z,99549.13
2023-04-12T13:17:01.754Z,99541.84
2023-04-12T13:19:30.566Z,99536.16
2023-04-12T13:21:59.312Z,99520.47
2023-04-12T13:24:27.791Z,99514.88
2023-04-12T13:26:58.343Z,99507.75
2023-04-12T13:29:27.332Z,99512.75
2023-04-12T13:31:56.185Z,99510.94
2023-04-12T13:34:24.840Z,99479.13
2023-04-12T13:36:53.834Z,99507.38
2023-04-12T13:39:22.967Z,99487.63
2023-04-12T13:41:51.906Z,99502.88
2023-04-12T13:44:22.298Z,99486.81
2023-04-12T13:46:51.943Z,99489.81
2023-04-12T13:49:20.466Z,99490.09
2023-04-12T13:51:49.011Z,99483.22
2023-04-12T13:54:17.492Z,99482.88
2023-04-12T13:56:46.320Z,99476.03
2023-04-12T13:59:15.335Z,99472.38
2023-04-12T14:01:45.450Z,99458.41
2023-04-12T14:04:14.128Z,99414.41
2023-04-12T14:06:42.932Z,99453.31
2023-04-12T14:09:11.731Z,99458.34
2023-04-12T14:11:48.095Z,99412.66
2023-04-12T14:14:17.097Z,99456.91
2023-04-12T14:16:47.856Z,99458.38
2023-04-12T14:19:16.583Z,99455.50
2023-04-12T14:21:45.552Z,99449.63
2023-04-12T14:24:14.377Z,99445.34
2023-04-12T14:26:43.080Z,99444.91
2023-04-12T14:29:11.579Z,99416.44
2023-04-12T14:31:40.713Z,99433.50
2023-04-12T14:34:11.126Z,99430.66
2023-04-12T14:36:39.618Z,99404.22
2023-04-12T14:39:11.591Z,99422.94
2023-04-12T14:41:42.103Z,99428.88
2023-04-12T14:44:11.030Z,99430.34
2023-04-12T14:46:39.702Z,99422.63
2023-04-12T14:49:09.927Z,99425.16
2023-04-12T14:51:38.648Z,99420.13
2023-04-12T14:54:07.190Z,99420.44
2023-04-12T14:56:43.501Z,99429.31
2023-04-12T14:59:18.425Z,99419.13
2023-04-12T15:01:47.004Z,99415.84
2023-04-12T15:04:17.229Z,99412.63
2023-04-12T15:06:46.181Z,99405.84
2023-04-12T15:09:17.715Z,99407.38
2023-04-12T15:11:50.635Z,99402.03
2023-04-12T15:14:20.614Z,99402.13
2023-04-12T15:16:50.367Z,99391.47
2023-04-12T15:19:23.431Z,99393.84
2023-04-12T15:21:54.981Z,99389.09
2023-04-12T15:24:24.366Z,99367.44
2023-04-12T15:26:53.933Z,99401.06
2023-04-12T15:29:24.360Z,99349.22
2023-04-12T15:31:53.424Z,99389.44
2023-04-12T15:34:25.225Z,99390.88
2023-04-12T15:36:53.820Z,99397.28
2023-04-12T15:39:22.529Z,99388.88
2023-04-12T15:41:51.244Z,99390.84
2023-04-12T15:44:20.044Z,99389.69
2023-04-12T15:46:56.220Z,99365.78
2023-04-12T15:49:35.596Z,99377.25
2023-04-12T15:52:04.802Z,99380.72
2023-04-12T15:54:33.636Z,99379.28
2023-04-12T15:57:09.597Z,99369.00
2023-04-12T15:59:38.827Z,99375.34
2023-04-12T16:02:09.992Z,99358.19
2023-04-12T16:04:40.513Z,99317.66
2023-04-12T16:07:09.490Z,99356.78
2023-04-12T16:09:40.562Z,99352.97
2023-04-12T16:12:09.087Z,99330.25
2023-04-12T16:14:38.085Z,99348.31
2023-04-12T16:17:07.603Z,99353.56
2023-04-12T16:19:36.368Z,99347.38
2023-04-12T16:22:06.576Z,99335.00
2023-04-12T16:24:37.460Z,99343.00
2023-04-12T16:27:07.155Z,99341.91
2023-04-12T16:29:35.602Z,99340.88
2023-04-12T16:32:04.180Z,99338.13
2023-04-12T16:34:33.709Z,99334.22
2023-04-12T16:37:02.713Z,99322.34
2023-04-12T16:39:33.986Z,99254.16
2023-04-12T16:42:06.144Z,99293.22
2023-04-12T16:44:34.928Z,99319.13
2023-04-12T16:47:03.407Z,99317.16
2023-04-12T16:49:32.195Z,99307.19
2023-04-12T16:52:01.809Z,99314.66
2023-04-12T16:54:31.865Z,99301.19
2023-04-12T16:57:00.427Z,99276.81
2023-04-12T16:59:29.481Z,99265.69
2023-04-12T17:02:00.684Z,99295.81
2023-04-12T17:04:30.049Z,99292.63
2023-04-12T17:06:58.946Z,99287.16
2023-04-12T17:09:28.060Z,99290.03
2023-04-12T17:11:59.148Z,99297.34
2023-04-12T17:14:30.880Z,99309.84
2023-04-12T17:16:59.916Z,99261.25
2023-04-12T17:19:28.667Z,99310.34
2023-04-12T17:21:57.450Z,99308.19
2023-04-12T17:24:26.666Z,99304.66
2023-04-12T17:26:55.329Z,99303.94
2023-04-12T17:29:25.638Z,99292.59
2023-04-12T17:31:55.194Z,99312.81
2023-04-12T17:34:23.672Z,99309.16
2023-04-12T17:36:55.221Z,99295.56
2023-04-12T17:39:23.956Z,99282.09
2023-04-12T17:41:52.748Z,99289.59
2023-04-12T17:44:21.502Z,99288.28
2023-04-12T17:46:51.380Z,99281.69
2023-04-12T17:49:20.211Z,99283.81
2023-04-12T17:51:48.974Z,99285.06
2023-04-12T17:54:17.728Z,99278.22
2023-04-12T17:56:46.485Z,99272.38
2023-04-12T17:59:15.788Z,99274.41
2023-04-12T18:01:44.850Z,99273.53
2023-04-12T18:04:14.958Z,99236.81
2023-04-12T18:06:43.921Z,99271.28
2023-04-12T18:09:12.860Z,99286.38
2023-04-12T18:11:43.400Z,99242.56
2023-04-12T18:14:13.607Z,99287.38
2023-04-12T18:16:42.208Z,99290.97
2023-04-12T18:19:11.516Z,99291.03
2023-04-12T18:21:41.551Z,99285.91
2023-04-12T18:24:10.680Z,99262.97
2023-04-12T18:26:39.510Z,99283.44
2023-04-12T18:29:08.292Z,99285.25
2023-04-12T18:31:40.029Z,99251.75
2023-04-12T18:34:09.339Z,99289.00
2023-04-12T18:36:38.226Z,99290.84
2023-04-12T18:39:08.926Z,99287.47
2023-04-12T18:41:37.993Z,99293.78
2023-04-12T18:44:09.180Z,99300.09
2023-04-12T18:46:38.046Z,99301.09
2023-04-12T18:49:06.768Z,99295.78
2023-04-12T18:51:36.039Z,99298.53
2023-04-12T18:54:07.330Z,99305.63
2023-04-12T18:56:37.779Z,99300.44
2023-04-12T18:59:06.359Z,99297.94
2023-04-12T19:01:36.965Z,99294.50
2023-04-12T19:04:05.892Z,99297.06
2023-04-12T19:06:34.928Z,99283.63
2023-04-12T19:09:04.292Z,99280.97
2023-04-12T19:11:35.517Z,99284.41
2023-04-12T19:14:07.615Z,99281.91
2023-04-12T19:16:36.888Z,99282.81
2023-04-12T19:19:06.050Z,99279.25
2023-04-12T19:21:35.506Z,99275.66
2023-04-12T19:24:04.723Z,99272.28
2023-04-12T19:26:36.646Z,99268.00
2023-04-12T19:29:08.733Z,99263.63
2023-04-12T19:31:37.924Z,99262.78
2023-04-12T19:34:06.937Z,99258.19
2023-04-12T19:36:35.989Z,99250.38
2023-04-12T19:39:06.295Z,99246.72
2023-04-12T19:41:48.475Z,99251.94
2023-04-12T19:44:18.840Z,99249.97
2023-04-12T19:46:48.392Z,99243.88
2023-04-12T19:49:17.117Z,99239.41
2023-04-12T19:51:46.232Z,99229.75
2023-04-12T19:54:15.026Z,99211.75
2023-04-12T19:56:44.212Z,99205.59
2023-04-12T19:59:13.452Z,99192.84
2023-04-12T20:01:47.885Z,99204.72
2023-04-12T20:04:17.563Z,99201.22
2023-04-12T20:06:47.240Z,99199.44
2023-04-12T20:09:16.132Z,99205.59
2023-04-12T20:11:44.952Z,99179.00
2023-04-12T20:14:13.456Z,99158.88
2023-04-12T20:16:43.901Z,99151.88
2023-04-12T20:19:13.281Z,99150.66
2023-04-12T20:21:41.716Z,99161.25
2023-04-12T20:24:10.116Z,99179.72
2023-04-12T20:26:38.817Z,99182.38
2023-04-12T20:29:08.005Z,99176.13
2023-04-12T20:31:37.126Z,99176.22
2023-04-12T20:34:07.024Z,99164.84
2023-04-12T20:36:35.874Z,99171.13
2023-04-12T20:39:05.584Z,99172.00
2023-04-12T20:41:38.182Z,99170.19
2023-04-12T20:44:08.426Z,99168.41
2023-04-12T20:46:37.591Z,99176.44
2023-04-12T20:49:07.609Z,99172.91
2023-04-12T20:51:36.396Z,99176.50
2023-04-12T20:54:05.133Z,99173.94
2023-04-12T20:56:33.616Z,99159.91
2023-04-12T20:59:02.816Z,99165.34
2023-04-12T21:01:31.819Z,99157.63
2023-04-12T21:04:06.312Z,99116.91
2023-04-12T21:06:37.527Z,99168.69
2023-04-12T21:09:06.868Z,99158.34
2023-04-12T21:11:36.439Z,99084.41
2023-04-12T21:14:05.158Z,99153.97
2023-04-12T21:16:33.784Z,99149.97
2023-04-12T21:19:02.829Z,99153.06
2023-04-12T21:21:35.244Z,99152.38
2023-04-12T21:24:04.605Z,99153.41
2023-04-12T21:26:33.515Z,99159.75
2023-04-12T21:29:02.480Z,99154.41
2023-04-12T21:31:31.558Z,99150.81
2023-04-12T21:34:02.204Z,99154.41
2023-04-12T21:36:30.638Z,99083.13
2023-04-12T21:39:01.201Z,99142.22
2023-04-12T21:41:30.521Z,99145.78
2023-04-12T21:43:58.936Z,99155.63
2023-04-12T21:46:28.828Z,99153.09
2023-04-12T21:48:57.656Z,99158.41
2023-04-12T21:51:26.527Z,99157.59
2023-04-12T21:53:55.309Z,99157.59
2023-04-12T21:56:25.104Z,99151.59
2023-04-12T21:58:53.596Z,99152.81
2023-04-12T22:01:22.063Z,99160.94
2023-04-12T22:03:50.891Z,99162.09
2023-04-12T22:06:20.173Z,99156.91
2023-04-12T22:08:49.633Z,99158.94
2023-04-12T22:11:18.383Z,99147.59
2023-04-12T22:13:48.203Z,99155.59
2023-04-12T22:16:17.173Z,99146.81
2023-04-12T22:18:47.666Z,99144.03
2023-04-12T22:21:16.693Z,99138.69
2023-04-12T22:23:45.769Z,99144.78
2023-04-12T22:26:15.273Z,99133.44
2023-04-12T22:28:44.382Z,99135.31
2023-04-12T22:31:16.156Z,99074.47
2023-04-12T22:33:48.057Z,99124.13
2023-04-12T22:36:17.659Z,99138.34
2023-04-12T22:38:47.580Z,99141.16
2023-04-12T22:41:17.460Z,99150.06
2023-04-12T22:43:47.651Z,99139.50
2023-04-12T22:46:18.799Z,99141.34
2023-04-12T22:48:48.209Z,99134.25
2023-04-12T22:51:16.910Z,99142.13
2023-04-12T22:53:45.399Z,99147.38
2023-04-12T22:56:14.163Z,99134.16
2023-04-12T22:58:43.136Z,99135.00
2023-04-12T23:01:11.870Z,99137.78
2023-04-12T23:03:43.092Z,99112.94
2023-04-12T23:06:13.339Z,99147.59
2023-04-12T23:08:43.601Z,99140.63
2023-04-12T23:11:12.335Z,99135.34
2023-04-12T23:13:41.053Z,99140.69
2023-04-12T23:16:10.008Z,99139.09
2023-04-12T23:18:38.964Z,99137.38
2023-04-12T23:21:11.916Z,99127.34
2023-04-12T23:23:40.661Z,99144.47
2023-04-12T23:26:10.784Z,99147.22
2023-04-12T23:28:40.339Z,99144.50
2023-04-12T23:31:09.840Z,99142.59
2023-04-12T23:33:43.362Z,99150.41
2023-04-12T23:36:14.454Z,99096.94
2023-04-12T23:38:44.238Z,99138.09
2023-04-12T23:41:13.117Z,99143.78
2023-04-12T23:43:41.873Z,99142.44
2023-04-12T23:46:11.087Z,99147.28
2023-04-12T23:48:39.877Z,99155.44
2023-04-12T23:51:08.930Z,99157.31
2023-04-12T23:53:38.859Z,99160.81
2023-04-12T23:56:08.932Z,99153.59
2023-04-12T23:58:37.626Z,99155.16
